Anderson Dam, ID

12:17 AM MDT on October 25, 2014 (GMT -0600)
ITD Hammett Hill ID US | Change Station
CLOSE
Current Station
Personal Weather Station
Location: Hammett, ID
Elevation: 3174 ft
Nearby Weather Stations

Elev 3174 ft 43.05 °N, 115.58 °W | Updated 47 minutes ago

Clear
Clear
47 °F
Feels Like 44 °F
N
7
Wind Variable Wind from NNE
Gusts 7.0 mph

Today
High -- | Low -- °F
--% Chance of Precip.
Yesterday
High -- | Low -- °F
Precip. -- in
8:08 AM 6:44 PM
New Moon, 2% visible
Pressure 29.94 in
Visibility 5.0 miles
Clouds Clear
Windchill 44 °F
Dew Point 42 °F
Humidity 82%
Rainfall 0.02 in
Snow Depth Not available.
UV 0 out of 12
Pollen 1.40 out of 12
Ozone Good
PM2.5 Moderate
Flu Activity No Activity
METAR KMUO 250558Z AUTO 00000KT 5SM R12/5000FT BR CLR 09/09 A2995 RMK AO2 DZB0526E0555 SLP137 P0000 60000 T00850085 10216 20080 56002

More Conditions Fewer Conditions

Pressure 29.94 in
Visibility 5.0 miles
Clouds Clear
Windchill 44 °F
Dew Point 42 °F
Humidity 82%
Rainfall 0.02 in
Snow Depth Not available.
UV 0 out of 12
Pollen 1.40 out of 12
Ozone Good
PM2.5 Moderate
Flu Activity No Activity
METAR KMUO 250558Z AUTO 00000KT 5SM R12/5000FT BR CLR 09/09 A2995 RMK AO2 DZB0526E0555 SLP137 P0000 60000 T00850085 10216 20080 56002

More Conditions Fewer Conditions

10-Day Weather Forecast

Almanac

Astronomy

Oct. 25, 2014 Rise Set
Actual Time 8:08 AM MDT 6:44 PM MDT
Civil Twilight 7:39 AM MDT 7:13 PM MDT
Nautical Twilight 7:06 AM MDT 7:46 PM MDT
Astronomical Twilight 6:33 AM MDT 8:19 PM MDT
Moon 9:54 AM MDT 8:08 PM MDT
Length of Visible Light 11h 33m
Length of Day
10h 35m
Tomorrow will be 2m 43s shorter.
New Moon, 2% of the Moon is Illuminated
Today
New Moon
Oct 30
First Quarter
Nov 6
Full
Nov 14
Last Quarter
Nov 22
New

Community

WunderPhotos

Upload Photos

1,764,785 photos uploaded!

Nearby

Air Quality

  Air Quality AQ Index Pollutant
Yesterday Good
OZONE
Yesterday Good
PM10
Current Moderate
PM2.5
Current Good
OZONE
Friday Good
OZONE
Saturday Good
OZONE
Sunday Good
OZONE
Monday Good
OZONE
Tuesday Good
OZONE

Snow Depth

Station Depth Elevation
Camas Creek Divide 0 in 5710 ft
Trinity Mountain 1 in 7770 ft
Bogus Basin 0 in 6340 ft
Atlanta Summit 0 in 7580 ft
Soldier R.S. 0 in 5740 ft

Earthquake Activity

City Distance Mag. Time & Date
No recent earthquake activity has been reported nearby.
Minimum magnitude displayed is 2.5.

Coastal Water Temperatures

Place Temperature
No Stations Reporting

Nearby Weather Stations